Time;durP1;ratioP1;P1;durP2;ratioP2;P2;SDS_P1;SDS_P2;PMS_P1;PMS_P2;Temp;Humidity;BMP_temperature;BMP_pressure;BME280_temperature;BME280_humidity;BME280_pressure;Samples;Min_cycle;Max_cycle;Signal;HPM_P1;HPM_P2
2022/04/21 00:00:05;;;;;;;2.00;1.45;;;15.50;54.40;;;;;;4794689;29;20058;-77
2022/04/21 00:02:31;;;;;;;2.10;1.40;;;15.50;54.50;;;;;;4810037;29;20065;-78
2022/04/21 00:04:57;;;;;;;2.50;1.33;;;15.50;54.60;;;;;;4809744;29;20188;-78
2022/04/21 00:07:24;;;;;;;5.10;1.50;;;15.50;54.60;;;;;;4810649;29;20137;-77
2022/04/21 00:09:50;;;;;;;3.78;1.90;;;15.50;54.60;;;;;;4810189;29;20471;-78
2022/04/21 00:12:15;;;;;;;5.45;1.95;;;15.50;54.70;;;;;;4809941;29;20122;-78
2022/04/21 00:14:41;;;;;;;3.17;1.60;;;15.50;54.60;;;;;;4810382;29;20051;-78
2022/04/21 00:17:10;;;;;;;3.25;1.70;;;15.50;54.70;;;;;;4810835;29;20062;-77
2022/04/21 00:19:37;;;;;;;2.28;1.35;;;15.50;54.70;;;;;;4809894;29;20091;-77
2022/04/21 00:24:49;;;;;;;2.25;1.40;;;15.50;54.90;;;;;;4810131;29;20466;-78
2022/04/21 00:27:14;;;;;;;2.17;1.55;;;15.40;54.90;;;;;;4810029;29;20097;-77
2022/04/21 00:29:40;;;;;;;4.70;2.30;;;15.40;54.90;;;;;;4810037;29;20054;-78
2022/04/21 00:32:06;;;;;;;2.70;1.60;;;15.40;55.10;;;;;;4809730;29;20047;-78
2022/04/21 00:34:32;;;;;;;1.92;1.50;;;15.40;55.10;;;;;;4809802;29;20490;-77
2022/04/21 00:36:58;;;;;;;3.35;1.85;;;15.40;55.30;;;;;;4809543;29;20130;-78
2022/04/21 00:39:23;;;;;;;2.15;1.67;;;15.40;55.30;;;;;;4809861;29;20142;-78
2022/04/21 00:41:58;;;;;;;3.45;2.20;;;15.40;55.30;;;;;;4809586;29;20081;-79
2022/04/21 00:44:25;;;;;;;2.15;1.95;;;15.40;55.20;;;;;;4793251;29;20055;-78
2022/04/21 00:46:52;;;;;;;4.22;2.33;;;15.40;55.30;;;;;;4809600;29;20065;-77
2022/04/21 00:49:20;;;;;;;3.38;2.38;;;15.40;55.50;;;;;;4809677;29;20051;-78
2022/04/21 00:51:46;;;;;;;3.45;2.47;;;15.30;55.50;;;;;;4793512;29;20104;-78
2022/04/21 00:54:13;;;;;;;3.97;2.47;;;15.40;55.70;;;;;;4809613;29;20050;-78
2022/04/21 00:56:41;;;;;;;3.97;2.70;;;15.40;55.70;;;;;;4809569;29;20051;-77
2022/04/21 00:59:09;;;;;;;5.07;2.80;;;15.40;55.70;;;;;;4809508;29;20054;-77
2022/04/21 01:04:21;;;;;;;4.72;2.85;;;15.30;55.80;;;;;;4809611;29;20051;-77
2022/04/21 01:06:47;;;;;;;3.35;2.58;;;15.30;55.90;;;;;;4809484;29;20046;-76
2022/04/21 01:09:12;;;;;;;5.40;3.75;;;15.30;55.90;;;;;;4809177;29;20416;-78
2022/04/21 01:11:39;;;;;;;5.53;3.15;;;15.30;55.90;;;;;;4793440;29;20091;-77
2022/04/21 01:14:04;;;;;;;4.45;3.40;;;15.30;56.00;;;;;;4809372;29;20047;-76
2022/04/21 01:16:30;;;;;;;5.57;4.07;;;15.30;56.00;;;;;;4809123;29;20051;-76
2022/04/21 01:18:56;;;;;;;7.18;3.47;;;15.30;56.00;;;;;;4793339;29;20058;-77
2022/04/21 01:21:22;;;;;;;5.00;3.67;;;15.30;56.10;;;;;;4793122;29;20063;-76
2022/04/21 01:23:48;;;;;;;6.97;4.13;;;15.30;56.20;;;;;;4809072;29;20069;-76
2022/04/21 01:26:16;;;;;;;4.78;3.88;;;15.20;56.20;;;;;;4808829;29;20055;-77
2022/04/21 01:28:43;;;;;;;5.78;4.03;;;15.30;56.30;;;;;;4809098;29;20088;-77
2022/04/21 01:31:08;;;;;;;5.18;3.95;;;15.30;56.20;;;;;;4808817;29;20051;-77
2022/04/21 01:33:34;;;;;;;4.88;4.00;;;15.20;56.10;;;;;;4792496;29;20059;-77
2022/04/21 01:36:00;;;;;;;4.45;3.63;;;15.20;56.20;;;;;;4808696;29;20061;-76
2022/04/21 01:41:09;;;;;;;6.10;3.97;;;15.20;56.20;;;;;;4808717;29;20054;-77
2022/04/21 01:43:40;;;;;;;5.47;3.75;;;15.20;56.20;;;;;;4808808;29;20142;-77
2022/04/21 01:46:06;;;;;;;5.35;3.50;;;15.20;56.10;;;;;;4808669;29;20174;-77
2022/04/21 01:48:32;;;;;;;5.68;4.13;;;15.20;56.20;;;;;;4808839;29;20242;-78
2022/04/21 01:50:57;;;;;;;6.60;4.10;;;15.20;56.30;;;;;;4808660;29;20065;-78
2022/04/21 01:53:24;;;;;;;6.13;4.18;;;15.20;56.20;;;;;;4792235;29;20101;-77
2022/04/21 01:55:49;;;;;;;6.05;4.07;;;15.20;56.20;;;;;;4808259;29;20137;-77
2022/04/21 01:58:15;;;;;;;5.38;3.85;;;15.20;56.20;;;;;;4808193;29;20138;-76
2022/04/21 02:00:41;;;;;;;6.18;4.22;;;15.20;56.20;;;;;;4808406;29;20054;-76
2022/04/21 02:03:07;;;;;;;5.68;4.53;;;15.20;56.10;;;;;;4807930;29;20432;-77
2022/04/21 02:05:33;;;;;;;6.93;4.78;;;15.10;56.10;;;;;;4808725;29;20150;-77
2022/04/21 02:08:00;;;;;;;5.65;4.22;;;15.10;56.20;;;;;;4808681;29;20098;-77
2022/04/21 02:10:26;;;;;;;7.25;4.95;;;15.10;56.20;;;;;;4808334;29;20111;-76
2022/04/21 02:12:52;;;;;;;7.22;4.47;;;15.10;56.20;;;;;;4818773;29;20069;-77
2022/04/21 02:15:17;;;;;;;7.88;5.32;;;15.10;56.30;;;;;;4808204;29;20055;-77
2022/04/21 02:17:44;;;;;;;8.13;5.40;;;15.10;56.40;;;;;;4808339;29;20389;-76
2022/04/21 02:20:15;;;;;;;7.65;5.13;;;15.10;56.40;;;;;;4808149;29;20059;-76
2022/04/21 02:22:41;;;;;;;6.10;4.93;;;15.10;56.40;;;;;;4808563;29;20086;-77
2022/04/21 02:25:09;;;;;;;8.15;5.60;;;15.10;56.40;;;;;;4808063;29;20047;-77
2022/04/21 02:27:40;;;;;;;7.18;5.15;;;15.00;56.30;;;;;;4807474;29;20501;-76
2022/04/21 02:30:07;;;;;;;8.85;5.03;;;15.10;56.40;;;;;;4808095;29;20055;-78
2022/04/21 02:32:34;;;;;;;7.63;5.13;;;15.10;56.40;;;;;;4808132;29;20362;-77
2022/04/21 02:34:59;;;;;;;7.65;4.88;;;15.00;56.30;;;;;;4807687;29;20191;-77
2022/04/21 02:37:25;;;;;;;6.80;5.15;;;15.00;56.40;;;;;;4807527;29;20433;-76
2022/04/21 02:39:51;;;;;;;9.05;5.65;;;15.00;56.40;;;;;;4807896;29;20050;-78
2022/04/21 02:42:19;;;;;;;7.93;5.25;;;15.00;56.40;;;;;;4808067;29;20133;-77
2022/04/21 02:44:46;;;;;;;7.90;5.25;;;14.90;56.50;;;;;;4808075;29;20050;-77
2022/04/21 02:47:11;;;;;;;7.28;5.45;;;14.90;56.60;;;;;;4807971;29;20492;-77
2022/04/21 02:49:38;;;;;;;7.78;5.05;;;14.90;56.60;;;;;;4826571;29;20051;-77
2022/04/21 02:52:05;;;;;;;6.80;5.43;;;14.90;56.70;;;;;;4826630;29;20051;-76
2022/04/21 02:57:22;;;;;;;9.27;5.65;;;14.90;56.50;;;;;;4824834;29;20062;-77
2022/04/21 02:59:58;;;;;;;8.07;5.72;;;14.90;56.40;;;;;;4825382;29;20092;-77
2022/04/21 03:02:24;;;;;;;7.85;5.03;;;14.80;56.30;;;;;;4810123;29;20468;-76
2022/04/21 03:04:52;;;;;;;7.63;4.78;;;14.80;56.50;;;;;;4825809;29;20047;-77
2022/04/21 03:07:20;;;;;;;9.13;6.20;;;14.80;56.50;;;;;;4810128;29;20154;-78
2022/04/21 03:09:47;;;;;;;7.15;5.47;;;14.80;56.60;;;;;;4829402;29;20407;-77
2022/04/21 03:12:13;;;;;;;10.52;5.95;;;14.80;56.60;;;;;;4828108;29;20058;-76
2022/04/21 03:14:40;;;;;;;10.45;6.20;;;14.80;56.70;;;;;;4829116;29;20050;-75
2022/04/21 03:17:07;;;;;;;8.75;6.10;;;14.80;56.70;;;;;;4828669;29;20046;-76
2022/04/21 03:19:33;;;;;;;9.88;5.90;;;14.70;56.50;;;;;;4829434;29;20111;-76
2022/04/21 03:24:44;;;;;;;8.45;5.22;;;14.80;56.80;;;;;;4828877;29;20054;-78
2022/04/21 03:27:10;;;;;;;8.45;6.10;;;14.70;56.60;;;;;;4828733;29;20400;-76
2022/04/21 03:29:37;;;;;;;10.50;5.90;;;14.70;56.60;;;;;;4829248;29;20046;-77
2022/04/21 03:32:09;;;;;;;6.25;4.60;;;14.80;56.60;;;;;;4828763;29;20438;-77
2022/04/21 03:34:36;;;;;;;8.20;4.93;;;14.80;56.70;;;;;;4828861;29;20357;-77
2022/04/21 03:37:02;;;;;;;7.10;5.18;;;14.70;56.60;;;;;;4828466;29;20042;-76
2022/04/21 03:39:27;;;;;;;6.05;4.88;;;14.70;56.50;;;;;;4828475;29;20384;-76
2022/04/21 03:41:53;;;;;;;6.43;5.30;;;14.70;56.50;;;;;;4827723;29;20050;-77
2022/04/21 03:44:22;;;;;;;8.98;5.95;;;14.70;56.50;;;;;;4829148;29;20457;-77
2022/04/21 03:46:48;;;;;;;9.93;5.40;;;14.70;56.50;;;;;;4829101;29;20126;-77
2022/04/21 03:49:14;;;;;;;7.47;5.55;;;14.70;56.50;;;;;;4809659;29;20133;-78
2022/04/21 03:51:40;;;;;;;8.30;5.38;;;14.70;56.50;;;;;;4810734;29;20082;-77
2022/04/21 03:54:06;;;;;;;7.50;5.60;;;14.70;56.50;;;;;;4810645;29;20042;-77
2022/04/21 03:56:33;;;;;;;7.55;5.03;;;14.60;56.40;;;;;;4809965;29;20187;-76
2022/04/21 03:58:58;;;;;;;8.27;6.07;;;14.60;56.50;;;;;;4810395;29;20093;-78
2022/04/21 04:01:24;;;;;;;7.47;5.43;;;14.60;56.50;;;;;;4824381;29;20101;-77
2022/04/21 04:03:51;;;;;;;8.77;5.68;;;14.60;56.50;;;;;;4810671;29;20101;-78
2022/04/21 04:11:47;;;;;;;7.55;5.28;;;14.60;56.50;;;;;;4809678;29;20050;-77
2022/04/21 04:14:13;;;;;;;9.80;6.20;;;14.50;56.60;;;;;;4810203;29;20050;-76
2022/04/21 04:16:38;;;;;;;6.97;5.45;;;14.50;56.50;;;;;;4794593;29;20138;-77
2022/04/21 04:19:07;;;;;;;7.38;5.07;;;14.50;56.50;;;;;;4810155;29;20061;-76
2022/04/21 04:21:39;;;;;;;7.30;5.50;;;14.50;56.50;;;;;;4810164;29;20054;-76
2022/04/21 04:24:06;;;;;;;7.93;5.60;;;14.50;56.40;;;;;;4793978;29;20058;-77
2022/04/21 04:26:32;;;;;;;6.90;5.78;;;14.50;56.50;;;;;;4810151;29;20131;-76
2022/04/21 04:29:04;;;;;;;7.43;5.10;;;14.50;56.60;;;;;;4810202;29;20050;-77
2022/04/21 04:31:31;;;;;;;9.00;5.40;;;14.50;56.60;;;;;;4809523;29;20403;-77
2022/04/21 04:33:57;;;;;;;7.90;5.10;;;14.50;56.40;;;;;;4809656;29;20062;-78
2022/04/21 04:36:23;;;;;;;6.95;5.65;;;14.50;56.50;;;;;;4809610;29;20054;-77
2022/04/21 04:38:50;;;;;;;7.38;5.03;;;14.40;56.40;;;;;;4809755;29;20051;-76
2022/04/21 04:44:00;;;;;;;7.05;5.45;;;14.40;56.50;;;;;;4809366;29;20054;-78
2022/04/21 04:46:34;;;;;;;7.53;5.82;;;14.30;56.50;;;;;;4809126;29;20062;-77
2022/04/21 04:49:01;;;;;;;5.65;4.68;;;14.30;56.60;;;;;;4809502;29;20063;-77
2022/04/21 04:51:27;;;;;;;7.68;5.43;;;14.30;56.70;;;;;;4808181;29;20050;-77
2022/04/21 04:53:57;;;;;;;8.48;5.15;;;14.30;56.70;;;;;;4809814;29;20058;-77
2022/04/21 04:56:24;;;;;;;7.22;4.90;;;14.30;56.70;;;;;;4809583;29;20543;-77
2022/04/21 04:58:51;;;;;;;6.75;5.13;;;14.20;56.70;;;;;;4809618;29;20358;-77
2022/04/21 05:01:26;;;;;;;7.70;5.50;;;14.20;56.70;;;;;;4809309;29;20411;-76
2022/04/21 05:04:06;;;;;;;5.80;4.95;;;14.20;56.60;;;;;;4808939;29;20046;-77
2022/04/21 05:06:41;;;;;;;10.23;5.15;;;14.20;56.30;;;;;;4809419;29;20107;-76
2022/04/21 05:09:10;;;;;;;6.32;4.80;;;14.20;56.70;;;;;;4809337;29;20146;-80
2022/04/21 05:11:37;;;;;;;6.35;4.65;;;14.30;57.00;;;;;;4809147;29;20055;-78
2022/04/21 05:14:04;;;;;;;8.40;4.88;;;14.30;56.90;;;;;;4808706;29;20496;-77
2022/04/21 05:16:30;;;;;;;6.18;4.18;;;14.40;57.00;;;;;;4808554;29;20105;-79
2022/04/21 05:18:57;;;;;;;10.38;4.53;;;14.40;57.10;;;;;;4809787;29;20047;-79
2022/04/21 05:21:24;;;;;;;7.95;4.43;;;14.50;57.10;;;;;;4809170;29;20105;-79
2022/04/21 05:23:55;;;;;;;7.18;4.80;;;14.60;57.00;;;;;;4808819;29;20054;-77
2022/04/21 05:26:21;;;;;;;11.32;4.63;;;14.70;57.00;;;;;;4808853;29;20343;-77
2022/04/21 05:28:47;;;;;;;9.60;4.55;;;14.70;57.20;;;;;;4807688;29;20112;-74
2022/04/21 05:31:14;;;;;;;22.02;4.35;;;14.80;57.80;;;;;;4808749;29;20051;-75
2022/04/21 05:33:40;;;;;;;15.82;3.78;;;14.90;57.80;;;;;;4809029;29;20101;-72
2022/04/21 05:36:07;;;;;;;7.70;3.15;;;15.00;58.00;;;;;;4808653;29;20366;-77
2022/04/21 05:38:33;;;;;;;8.55;3.40;;;15.20;57.10;;;;;;4792636;29;20054;-76
2022/04/21 05:40:59;;;;;;;5.63;3.15;;;15.30;56.30;;;;;;4808516;29;20054;-69
2022/04/21 05:43:36;;;;;;;5.93;2.63;;;15.60;56.30;;;;;;4808919;29;20058;-76
2022/04/21 05:46:02;;;;;;;9.45;2.30;;;16.00;55.80;;;;;;4808446;29;20419;-76
2022/04/21 05:48:28;;;;;;;7.93;2.05;;;16.20;55.50;;;;;;4808739;29;20051;-77
2022/04/21 05:50:54;;;;;;;8.85;2.70;;;16.40;55.40;;;;;;4808013;29;20058;-76
2022/04/21 05:53:24;;;;;;;5.20;2.33;;;16.60;55.30;;;;;;4792802;29;20195;-77
2022/04/21 05:55:51;;;;;;;10.88;3.90;;;16.80;55.20;;;;;;4808017;29;20067;-76
2022/04/21 05:58:18;;;;;;;8.48;2.30;;;16.40;54.10;;;;;;4808543;29;20092;-74
2022/04/21 06:00:44;;;;;;;9.98;3.03;;;16.50;55.80;;;;;;4822332;29;20047;-78
2022/04/21 06:03:13;;;;;;;16.73;3.60;;;16.50;54.50;;;;;;4807810;29;20051;-76
2022/04/21 06:05:39;;;;;;;16.05;3.55;;;16.00;54.80;;;;;;4808355;29;20431;-75
2022/04/21 06:08:08;;;;;;;13.50;3.03;;;16.10;57.10;;;;;;4808355;29;20386;-76
2022/04/21 06:10:35;;;;;;;10.45;2.70;;;16.50;57.40;;;;;;4808373;29;20046;-77
2022/04/21 06:13:02;;;;;;;14.95;2.40;;;16.80;57.30;;;;;;4808207;29;20061;-76
2022/04/21 06:15:30;;;;;;;10.20;2.00;;;17.10;57.00;;;;;;4807323;29;20093;-76
2022/04/21 06:17:57;;;;;;;10.77;2.42;;;17.40;56.60;;;;;;4792018;29;20055;-78
2022/04/21 06:20:23;;;;;;;11.98;3.20;;;17.50;56.30;;;;;;4791856;29;20122;-75
2022/04/21 06:22:48;;;;;;;10.90;2.03;;;17.60;55.80;;;;;;4808228;29;20138;-77
2022/04/21 06:25:14;;;;;;;21.45;3.92;;;17.70;56.10;;;;;;4808171;29;20059;-74
2022/04/21 06:27:40;;;;;;;7.93;3.40;;;17.70;55.60;;;;;;4808049;29;20130;-77
2022/04/21 06:30:06;;;;;;;8.40;3.83;;;17.50;53.20;;;;;;4822403;29;20122;-78
2022/04/21 06:32:32;;;;;;;8.93;3.63;;;17.30;53.70;;;;;;4791959;29;20078;-75
2022/04/21 06:34:58;;;;;;;8.63;3.65;;;16.90;54.60;;;;;;4807808;29;20082;-78
2022/04/21 06:37:24;;;;;;;10.15;3.20;;;16.80;54.80;;;;;;4807068;29;20479;-77
2022/04/21 06:39:52;;;;;;;10.77;3.63;;;16.90;55.70;;;;;;4807012;29;20050;-78
2022/04/21 06:42:18;;;;;;;11.10;3.05;;;17.00;55.10;;;;;;4807767;29;20061;-75
2022/04/21 06:50:12;;;;;;;15.02;2.85;;;16.80;55.90;;;;;;4829131;29;20074;-72
2022/04/21 06:52:38;;;;;;;16.60;4.10;;;16.80;56.80;;;;;;4829464;29;20042;-72
2022/04/21 06:55:05;;;;;;;12.20;3.90;;;16.90;56.90;;;;;;4829420;29;20090;-73
2022/04/21 06:57:30;;;;;;;10.18;3.83;;;17.00;56.30;;;;;;4829234;29;20054;-73
2022/04/21 06:59:56;;;;;;;8.68;3.97;;;17.00;55.90;;;;;;4828239;29;20042;-74
2022/04/21 07:02:31;;;;;;;13.55;4.55;;;17.10;55.30;;;;;;4829020;29;20057;-74
2022/04/21 07:05:08;;;;;;;10.02;3.75;;;17.10;55.00;;;;;;4843750;29;20081;-72
2022/04/21 07:07:34;;;;;;;12.38;4.32;;;17.10;54.80;;;;;;4828547;29;20058;-73
2022/04/21 07:10:03;;;;;;;7.15;3.42;;;17.10;54.70;;;;;;4829485;29;20530;-72
2022/04/21 07:12:32;;;;;;;15.20;3.33;;;17.10;54.90;;;;;;4828790;29;20457;-73
2022/04/21 07:15:05;;;;;;;11.38;3.45;;;17.00;55.40;;;;;;4829265;29;20134;-73
2022/04/21 07:17:31;;;;;;;11.23;3.40;;;17.00;55.60;;;;;;4828596;29;20050;-72
2022/04/21 07:19:59;;;;;;;7.22;2.95;;;17.00;56.60;;;;;;4829191;29;20493;-76
2022/04/21 07:22:25;;;;;;;14.93;3.22;;;16.90;57.00;;;;;;4829249;29;20118;-76
2022/04/21 07:24:55;;;;;;;10.52;3.10;;;16.90;57.70;;;;;;4828546;29;20480;-78
2022/04/21 07:27:21;;;;;;;8.85;2.72;;;16.90;57.80;;;;;;4828783;29;20097;-73
2022/04/21 07:29:47;;;;;;;8.32;2.20;;;16.90;57.70;;;;;;4828004;29;20473;-71
2022/04/21 07:32:13;;;;;;;8.40;2.65;;;17.10;60.00;;;;;;4829369;29;20050;-72
2022/04/21 07:34:40;;;;;;;6.78;2.42;;;17.10;58.80;;;;;;4843766;29;20061;-74
2022/04/21 07:37:07;;;;;;;8.70;2.63;;;17.20;57.70;;;;;;4813175;29;20057;-73
2022/04/21 07:39:32;;;;;;;7.20;2.67;;;17.30;57.50;;;;;;4812965;29;20412;-72
2022/04/21 07:41:59;;;;;;;6.22;2.55;;;17.30;57.90;;;;;;4812860;29;20111;-71
2022/04/21 07:44:28;;;;;;;5.35;2.40;;;17.30;59.10;;;;;;4827749;29;20381;-72
2022/04/21 07:46:54;;;;;;;8.98;2.47;;;17.40;59.60;;;;;;4814154;29;20066;-73
2022/04/21 07:54:49;;;;;;;13.00;3.22;;;17.20;57.60;;;;;;4810458;29;20378;-72
2022/04/21 07:57:15;;;;;;;8.93;2.30;;;17.00;58.10;;;;;;4811137;29;20067;-72
2022/04/21 07:59:42;;;;;;;12.40;2.70;;;17.00;59.70;;;;;;4810597;29;20422;-73
2022/04/21 08:02:08;;;;;;;16.08;2.78;;;17.20;60.50;;;;;;4810192;29;20050;-74
2022/04/21 08:04:36;;;;;;;8.43;2.42;;;17.30;60.80;;;;;;4810260;29;20059;-73
2022/04/21 08:07:02;;;;;;;11.65;2.55;;;17.40;60.60;;;;;;4810176;29;20066;-71
2022/04/21 08:09:28;;;;;;;8.00;2.15;;;17.50;60.70;;;;;;4794245;29;20059;-72
2022/04/21 08:11:54;;;;;;;6.20;1.70;;;17.60;60.70;;;;;;4810433;29;20061;-73
2022/04/21 08:14:19;;;;;;;6.40;1.45;;;17.60;60.60;;;;;;4810879;29;20058;-72
2022/04/21 08:16:45;;;;;;;6.60;1.60;;;17.60;60.60;;;;;;4809967;29;20138;-73
2022/04/21 08:19:11;;;;;;;7.65;1.75;;;17.70;60.30;;;;;;4793813;29;20441;-72
2022/04/21 08:21:37;;;;;;;4.18;1.52;;;17.70;59.80;;;;;;4809975;29;20047;-73
2022/04/21 08:32:33;;;;;;;11.73;2.42;;;17.70;57.90;;;;;;4809784;29;20059;-73
2022/04/21 08:35:03;;;;;;;11.52;2.22;;;17.70;57.50;;;;;;4810142;29;20050;-72
2022/04/21 08:37:33;;;;;;;22.55;2.55;;;17.70;57.40;;;;;;4809617;29;20054;-72
2022/04/21 08:40:00;;;;;;;10.82;2.05;;;17.80;57.50;;;;;;4808734;29;20397;-71
2022/04/21 08:42:29;;;;;;;5.82;2.20;;;17.80;57.30;;;;;;4809526;29;20059;-72
2022/04/21 08:44:58;;;;;;;11.55;2.30;;;17.70;57.10;;;;;;4823825;29;20058;-72
2022/04/21 08:47:27;;;;;;;7.70;2.05;;;17.70;57.60;;;;;;4823649;29;20478;-75
2022/04/21 08:49:57;;;;;;;13.70;2.17;;;17.80;58.40;;;;;;4809769;29;20119;-74
2022/04/21 08:52:24;;;;;;;10.15;1.90;;;17.80;58.20;;;;;;4823649;29;20058;-75
2022/04/21 08:54:50;;;;;;;10.00;2.47;;;17.80;57.30;;;;;;4809039;29;20451;-75
2022/04/21 08:57:16;;;;;;;7.53;1.80;;;17.80;57.00;;;;;;4809089;29;20055;-73
2022/04/21 08:59:41;;;;;;;11.60;2.17;;;17.80;56.40;;;;;;4809147;29;20127;-75
2022/04/21 09:02:07;;;;;;;8.68;2.22;;;17.80;56.00;;;;;;4809674;29;20108;-74
2022/04/21 09:04:33;;;;;;;5.50;1.67;;;17.80;55.80;;;;;;4810024;29;20051;-73
2022/04/21 09:07:19;;;;;;;4.57;1.50;;;17.90;55.20;;;;;;4808692;29;20087;-74
2022/04/21 09:10:04;;;;;;;6.93;1.83;;;17.90;53.50;;;;;;4823698;29;20134;-74
2022/04/21 09:12:30;;;;;;;5.00;1.40;;;17.80;53.10;;;;;;4809454;29;20051;-73
2022/04/21 09:15:04;;;;;;;6.10;1.55;;;17.90;54.10;;;;;;4808889;29;20195;-75
2022/04/21 09:17:29;;;;;;;8.05;1.75;;;17.90;53.70;;;;;;4808860;29;20129;-77
2022/04/21 09:19:59;;;;;;;5.43;1.40;;;17.90;53.40;;;;;;4809042;29;20164;-77
2022/04/21 09:22:30;;;;;;;9.25;1.65;;;17.90;53.90;;;;;;4823546;29;20059;-74
2022/04/21 09:24:58;;;;;;;7.75;1.98;;;17.90;54.30;;;;;;4808507;29;20061;-73
2022/04/21 09:27:23;;;;;;;8.93;2.10;;;17.90;53.60;;;;;;4822945;29;20047;-74
2022/04/21 09:29:50;;;;;;;10.82;1.75;;;17.90;53.50;;;;;;4808341;29;20084;-75
2022/04/21 09:32:20;;;;;;;8.10;1.42;;;17.90;54.00;;;;;;4808242;29;20051;-75
2022/04/21 09:34:50;;;;;;;11.52;1.48;;;17.90;55.30;;;;;;4808873;29;20051;-76
2022/04/21 09:37:20;;;;;;;7.00;1.50;;;18.00;56.60;;;;;;4823010;29;20055;-75
2022/04/21 09:39:50;;;;;;;10.65;1.60;;;18.00;57.40;;;;;;4808814;29;20101;-73
2022/04/21 09:42:27;;;;;;;7.57;1.63;;;18.00;58.20;;;;;;4823052;29;20120;-74
2022/04/21 09:47:54;;;;;;;15.48;2.28;;;18.10;59.30;;;;;;4808675;29;20055;-74
2022/04/21 09:50:23;;;;;;;5.93;1.25;;;18.10;59.20;;;;;;4809292;29;20111;-74
2022/04/21 09:52:52;;;;;;;12.35;1.90;;;18.10;59.40;;;;;;4792627;29;20054;-73
2022/04/21 09:55:30;;;;;;;7.63;1.65;;;18.10;59.70;;;;;;4808229;29;20091;-74
2022/04/21 09:58:09;;;;;;;13.43;2.15;;;18.10;60.00;;;;;;4806850;29;20058;-74
2022/04/21 10:00:37;;;;;;;11.55;2.00;;;18.10;60.80;;;;;;4809183;29;20138;-77
2022/04/21 10:03:05;;;;;;;14.65;2.10;;;18.20;59.70;;;;;;4808310;29;20474;-72
2022/04/21 10:05:32;;;;;;;6.70;2.03;;;18.20;59.10;;;;;;4807674;29;20090;-75
2022/04/21 10:08:03;;;;;;;9.57;2.33;;;18.10;57.10;;;;;;4807525;29;20077;-71
2022/04/21 10:10:31;;;;;;;11.95;1.88;;;18.10;56.30;;;;;;4807936;29;20047;-74
2022/04/21 10:12:59;;;;;;;7.13;2.13;;;18.10;56.70;;;;;;4808095;29;20336;-73
2022/04/21 10:15:26;;;;;;;9.98;1.98;;;18.10;57.20;;;;;;4807095;29;20089;-72
2022/04/21 10:17:52;;;;;;;9.20;2.10;;;18.10;57.80;;;;;;4807851;29;20425;-73
2022/04/21 10:20:24;;;;;;;8.63;1.60;;;18.00;58.20;;;;;;4807896;29;20091;-73
2022/04/21 10:22:54;;;;;;;11.38;2.15;;;18.10;58.50;;;;;;4807489;29;20420;-73
2022/04/21 10:25:32;;;;;;;7.15;1.75;;;18.10;58.70;;;;;;4807935;29;20133;-73
2022/04/21 10:27:58;;;;;;;7.70;1.60;;;18.10;58.20;;;;;;4807891;29;20051;-74
2022/04/21 10:30:29;;;;;;;10.10;1.73;;;18.10;58.50;;;;;;4807717;29;20078;-73
2022/04/21 10:33:01;;;;;;;12.43;1.88;;;18.10;58.10;;;;;;4807906;29;20366;-72
2022/04/21 10:35:34;;;;;;;9.07;1.90;;;18.00;57.90;;;;;;4807928;29;20061;-73
2022/04/21 10:38:14;;;;;;;9.45;1.90;;;18.00;58.10;;;;;;4807777;29;20526;-73
2022/04/21 10:41:03;;;;;;;8.27;2.00;;;18.00;57.80;;;;;;4807895;29;20093;-73
2022/04/21 10:43:48;;;;;;;14.15;2.58;;;18.00;57.10;;;;;;4807382;29;20065;-74
2022/04/21 10:46:21;;;;;;;4.50;1.38;;;17.90;54.10;;;;;;4807469;29;20054;-73
2022/04/21 10:48:47;;;;;;;3.45;1.60;;;17.90;54.90;;;;;;4808226;29;20354;-74
2022/04/21 10:57:11;;;;;;;5.78;2.13;;;17.80;55.60;;;;;;4791500;29;20065;-74
2022/04/21 10:57:32;;;;;;;4.25;1.58;;;17.90;57.90;;;;;;4806790;29;20138;-74
2022/04/21 11:00:03;;;;;;;9.23;1.60;;;17.90;57.80;;;;;;4809466;29;20192;-74
2022/04/21 11:02:43;;;;;;;4.43;1.23;;;17.90;58.00;;;;;;4807934;29;20058;-74
2022/04/21 11:05:35;;;;;;;4.38;1.33;;;17.90;57.60;;;;;;4791016;29;20123;-74
2022/04/21 11:08:03;;;;;;;3.88;1.42;;;17.90;57.90;;;;;;4789684;29;20463;-74
2022/04/21 11:10:45;;;;;;;4.97;1.33;;;17.90;57.70;;;;;;4789203;30;20134;-74
2022/04/21 11:13:12;;;;;;;3.80;1.02;;;17.90;57.70;;;;;;4804504;29;20047;-73
2022/04/21 11:15:50;;;;;;;3.88;1.33;;;17.90;57.60;;;;;;4805957;29;20119;-73
2022/04/21 11:18:22;;;;;;;5.47;1.35;;;17.90;57.80;;;;;;4806954;29;20050;-74
2022/04/21 11:20:50;;;;;;;6.55;1.58;;;17.90;57.70;;;;;;4806664;29;20425;-73
2022/04/21 11:23:31;;;;;;;5.10;1.80;;;17.90;57.60;;;;;;4807231;29;20043;-73
2022/04/21 11:26:05;;;;;;;3.65;1.40;;;17.90;56.20;;;;;;4821739;29;20055;-73
2022/04/21 11:28:31;;;;;;;;;;;17.80;56.00;;;;;;4791896;29;20101;-72
2022/04/21 11:30:58;;;;;;;3.85;1.60;;;17.80;55.70;;;;;;4824543;29;20344;-73
2022/04/21 11:33:24;;;;;;;3.70;1.50;;;17.90;57.00;;;;;;4810731;29;20347;-73
2022/04/21 11:35:50;;;;;;;5.50;1.38;;;17.90;57.50;;;;;;4810728;29;20050;-73
2022/04/21 11:38:15;;;;;;;7.20;2.00;;;17.90;57.70;;;;;;4810634;29;20127;-73
2022/04/21 11:40:41;;;;;;;5.10;1.20;;;17.80;57.90;;;;;;4795149;29;20085;-73
2022/04/21 11:43:16;;;;;;;11.43;2.15;;;17.80;57.90;;;;;;4810924;29;20336;-75
2022/04/21 11:45:44;;;;;;;4.80;1.33;;;17.90;58.20;;;;;;4810826;29;20135;-73
2022/04/21 11:48:14;;;;;;;11.07;1.88;;;17.80;59.40;;;;;;4809547;29;20086;-75
2022/04/21 11:50:47;;;;;;;7.05;1.70;;;17.90;58.80;;;;;;4809429;29;20092;-73
2022/04/21 11:53:20;;;;;;;6.85;1.75;;;17.90;58.50;;;;;;4809902;29;20115;-72
2022/04/21 11:55:47;;;;;;;7.27;1.77;;;17.90;56.70;;;;;;4807831;29;20047;-73
2022/04/21 11:58:26;;;;;;;10.23;1.92;;;17.90;57.30;;;;;;4810042;29;20127;-73
2022/04/21 12:06:43;;;;;;;11.23;2.25;;;17.80;56.30;;;;;;4809587;29;20059;-77
2022/04/21 12:09:15;;;;;;;7.38;1.60;;;17.70;56.70;;;;;;4809924;29;20066;-76
2022/04/21 12:11:42;;;;;;;6.63;1.60;;;17.70;56.60;;;;;;4809967;29;20094;-81
2022/04/21 12:14:08;;;;;;;7.47;1.60;;;17.70;56.70;;;;;;4809174;29;20051;-74
2022/04/21 12:16:37;;;;;;;7.78;1.77;;;17.70;57.00;;;;;;4809976;29;20063;-77
2022/04/21 12:19:34;;;;;;;5.20;2.20;;;17.70;57.60;;;;;;4808298;29;20482;-75
2022/04/21 12:22:02;;;;;;;4.68;1.70;;;17.70;58.00;;;;;;4793418;29;20191;-74
2022/04/21 12:24:33;;;;;;;3.67;1.50;;;17.70;57.60;;;;;;4793061;29;20054;-76
2022/04/21 12:27:02;;;;;;;7.90;2.20;;;17.70;57.60;;;;;;4823503;29;20116;-74
2022/04/21 12:29:30;;;;;;;5.22;1.63;;;17.70;57.50;;;;;;4793582;29;20055;-76
2022/04/21 12:31:59;;;;;;;5.35;1.35;;;17.70;57.60;;;;;;4808872;29;20105;-74
2022/04/21 12:34:27;;;;;;;6.30;1.50;;;17.70;57.40;;;;;;4809672;29;20192;-75
2022/04/21 12:36:55;;;;;;;1.83;1.08;;;17.70;57.20;;;;;;4808839;29;20470;-75
2022/04/21 12:39:21;;;;;;;3.50;1.20;;;17.70;57.20;;;;;;4809794;29;20050;-75
2022/04/21 12:41:48;;;;;;;6.43;1.77;;;17.60;57.10;;;;;;4808416;29;20134;-74
2022/04/21 12:44:14;;;;;;;4.13;1.60;;;17.70;57.10;;;;;;4809760;29;20047;-77
2022/04/21 12:46:41;;;;;;;5.85;1.67;;;17.60;56.80;;;;;;4806319;29;20054;-77
2022/04/21 12:49:08;;;;;;;2.42;1.17;;;17.60;56.90;;;;;;4827634;29;20121;-68
2022/04/21 12:51:34;;;;;;;3.03;1.42;;;17.60;56.80;;;;;;4827359;29;20054;-73
2022/04/21 12:53:59;;;;;;;4.30;1.90;;;17.60;56.70;;;;;;4811785;29;20126;-73
2022/04/21 12:56:34;;;;;;;7.15;1.83;;;17.60;56.70;;;;;;4842142;29;20050;-73
2022/04/21 12:59:00;;;;;;;5.80;1.73;;;17.60;56.50;;;;;;4827279;29;20365;-72
2022/04/21 13:01:26;;;;;;;7.15;1.60;;;17.60;56.60;;;;;;4826825;29;20133;-75
2022/04/21 13:03:52;;;;;;;8.60;1.90;;;17.60;56.70;;;;;;4830205;29;20081;-74
2022/04/21 13:06:30;;;;;;;2.33;1.30;;;17.60;56.80;;;;;;4831980;29;20093;-73
2022/04/21 13:08:57;;;;;;;5.75;1.45;;;17.60;57.00;;;;;;4823159;29;20476;-73
2022/04/21 13:11:23;;;;;;;3.72;1.40;;;17.60;56.70;;;;;;4829154;29;20499;-72
2022/04/21 13:13:51;;;;;;;3.33;1.50;;;17.60;56.90;;;;;;4828214;29;20050;-73
2022/04/21 13:16:18;;;;;;;3.63;1.50;;;17.60;56.80;;;;;;4826219;29;20060;-72
2022/04/21 13:18:45;;;;;;;3.55;1.27;;;17.60;56.50;;;;;;4841049;29;20054;-73
2022/04/21 13:23:55;;;;;;;3.47;1.40;;;17.60;56.20;;;;;;4825731;29;20051;-73
2022/04/21 13:26:28;;;;;;;4.13;1.60;;;17.50;56.10;;;;;;4826285;29;20058;-73
2022/04/21 13:28:55;;;;;;;3.95;1.48;;;17.50;56.00;;;;;;4810538;29;20046;-73
2022/04/21 13:34:09;;;;;;;2.83;1.45;;;17.50;55.70;;;;;;4826545;29;20133;-73
2022/04/21 13:36:38;;;;;;;3.85;1.30;;;17.50;56.10;;;;;;4826477;29;20060;-73
2022/04/21 13:39:05;;;;;;;3.00;1.30;;;17.50;56.10;;;;;;4827226;29;20402;-73
2022/04/21 13:41:31;;;;;;;11.50;1.65;;;17.60;56.20;;;;;;4827333;29;20132;-73
2022/04/21 13:43:56;;;;;;;4.82;1.95;;;17.60;55.70;;;;;;4826808;29;20133;-73
2022/04/21 13:46:22;;;;;;;6.10;2.17;;;17.60;55.30;;;;;;4814106;29;20119;-72
2022/04/21 13:48:48;;;;;;;8.25;1.75;;;17.60;54.80;;;;;;4808794;29;20058;-73